Time;durP1;ratioP1;P1;durP2;ratioP2;P2;SDS_P1;SDS_P2;PMS_P1;PMS_P2;Temp;Humidity;BMP_temperature;BMP_pressure;BME280_temperature;BME280_humidity;BME280_pressure;Samples;Min_cycle;Max_cycle;Signal;HPM_P1;HPM_P2
2021/10/20 00:00:29;;;;;;;75.25;39.55;;;;;;;1.69;70.86;101948.14;1825278;78;21417;-84
2021/10/20 00:02:56;;;;;;;75.37;38.02;;;;;;;1.65;70.83;101949.86;1824972;78;20896;-85
2021/10/20 00:05:24;;;;;;;69.25;34.90;;;;;;;1.62;70.79;101946.00;1824920;78;20868;-82
2021/10/20 00:07:53;;;;;;;70.45;34.95;;;;;;;1.59;70.89;101947.28;1825937;78;21811;-83
2021/10/20 00:10:21;;;;;;;73.15;38.95;;;;;;;1.55;71.01;101947.28;1824817;78;20901;-83
2021/10/20 00:12:51;;;;;;;69.72;37.10;;;;;;;1.52;71.14;101943.42;1824894;78;20895;-84
2021/10/20 00:15:21;;;;;;;80.12;39.18;;;;;;;1.50;71.35;101955.05;1825495;78;21524;-85
2021/10/20 00:17:48;;;;;;;63.73;33.25;;;;;;;1.48;71.54;101952.04;1824931;78;21404;-84
2021/10/20 00:20:17;;;;;;;60.60;31.90;;;;;;;1.47;71.69;101955.47;1824980;78;21782;-84
2021/10/20 00:22:44;;;;;;;63.60;30.97;;;;;;;1.47;71.84;101958.05;1824913;78;20875;-87
2021/10/20 00:25:12;;;;;;;63.30;32.93;;;;;;;1.47;71.98;101960.23;1824861;78;21469;-86
2021/10/20 00:27:41;;;;;;;55.55;29.95;;;;;;;1.46;72.12;101954.61;1824789;78;21582;-87
2021/10/20 00:30:08;;;;;;;65.50;30.85;;;;;;;1.46;72.37;101961.08;1822370;78;20958;-87
2021/10/20 00:32:36;;;;;;;54.83;30.77;;;;;;;1.45;72.46;101957.64;1821366;78;21148;-87
2021/10/20 00:35:04;;;;;;;63.95;34.48;;;;;;;1.47;72.55;101956.77;1821540;78;20919;-86
2021/10/20 00:37:33;;;;;;;61.25;33.02;;;;;;;1.47;72.46;101960.64;1821637;78;21489;-87
2021/10/20 00:39:59;;;;;;;55.50;32.85;;;;;;;1.46;72.32;101957.20;1822180;78;20975;-86
2021/10/20 00:42:26;;;;;;;53.08;30.57;;;;;;;1.44;72.19;101959.77;1821705;78;20820;-85
2021/10/20 00:44:57;;;;;;;63.10;34.10;;;;;;;1.43;72.05;101963.67;1821764;78;21101;-86
2021/10/20 00:47:24;;;;;;;56.20;30.37;;;;;;;1.41;71.95;101962.37;1821326;78;20864;-87
2021/10/20 00:49:51;;;;;;;45.88;26.90;;;;;;;1.38;71.93;101958.52;1821659;78;20923;-88
2021/10/20 00:52:20;;;;;;;54.70;31.95;;;;;;;1.36;71.91;101961.97;1821637;78;21006;-88
2021/10/20 00:54:47;;;;;;;60.45;31.30;;;;;;;1.32;71.96;101966.70;1822167;78;20856;-87
2021/10/20 00:57:14;;;;;;;61.35;32.23;;;;;;;1.29;72.00;101966.67;1823095;78;21138;-86
2021/10/20 00:59:41;;;;;;;49.48;27.82;;;;;;;1.25;71.95;101967.12;1822661;78;20900;-86
2021/10/20 01:02:11;;;;;;;52.93;28.62;;;;;;;1.23;72.01;101972.72;1822567;78;21412;-86
2021/10/20 01:04:39;;;;;;;48.98;29.32;;;;;;;1.19;71.95;101970.55;1822516;78;21530;-86
2021/10/20 01:07:07;;;;;;;52.20;26.35;;;;;;;1.17;72.04;101972.70;1822697;78;20884;-86
2021/10/20 01:09:35;;;;;;;63.48;29.50;;;;;;;1.14;72.24;101980.03;1822672;78;21126;-88
2021/10/20 01:12:02;;;;;;;54.83;30.10;;;;;;;1.13;72.26;101976.14;1822277;78;20912;-86
2021/10/20 01:14:31;;;;;;;49.38;27.00;;;;;;;1.12;72.25;101977.02;1821688;78;20963;-85
2021/10/20 01:17:02;;;;;;;47.48;28.25;;;;;;;1.12;72.23;101982.19;1816758;78;20985;-85
2021/10/20 01:19:28;;;;;;;43.33;26.15;;;;;;;1.11;72.29;101985.61;1821365;78;21058;-86
2021/10/20 01:21:55;;;;;;;45.90;26.33;;;;;;;1.09;72.39;101986.03;1816618;78;21099;-86
2021/10/20 01:24:22;;;;;;;51.90;26.37;;;;;;;1.06;72.57;101990.77;1821384;78;20970;-85
2021/10/20 01:26:51;;;;;;;48.25;26.40;;;;;;;1.05;72.72;101997.25;1821403;78;21640;-89
2021/10/20 01:29:19;;;;;;;57.48;28.25;;;;;;;1.02;72.92;101995.09;1821213;78;21408;-85
2021/10/20 01:31:48;;;;;;;45.48;27.32;;;;;;;1.01;73.12;102001.10;1821410;78;20848;-83
2021/10/20 01:34:15;;;;;;;43.42;24.37;;;;;;;1.00;73.18;102003.27;1821483;78;21781;-85
2021/10/20 01:36:44;;;;;;;48.08;25.52;;;;;;;1.01;73.11;102008.00;1821425;78;20903;-86
2021/10/20 01:39:11;;;;;;;41.48;23.95;;;;;;;1.02;72.97;102014.87;1821683;78;20923;-86
2021/10/20 01:41:38;;;;;;;44.93;25.23;;;;;;;1.02;72.83;102014.47;1821314;78;20927;-86
2021/10/20 01:44:07;;;;;;;56.98;29.87;;;;;;;1.01;72.63;102019.19;1821345;78;20860;-87
2021/10/20 01:46:34;;;;;;;51.85;28.52;;;;;;;1.00;72.61;102029.09;1821832;78;21420;-84
2021/10/20 01:49:01;;;;;;;46.68;25.50;;;;;;;0.97;72.69;102025.19;1822115;78;20959;-85
2021/10/20 01:51:30;;;;;;;47.62;27.37;;;;;;;0.94;72.72;102026.49;1821430;78;20883;-86
2021/10/20 01:53:56;;;;;;;54.63;25.45;;;;;;;0.90;72.81;102031.20;1821835;78;20884;-86
2021/10/20 01:56:23;;;;;;;41.00;25.15;;;;;;;0.83;72.86;102028.19;1821510;78;20892;-86
2021/10/20 01:58:50;;;;;;;45.55;24.77;;;;;;;0.77;72.85;102030.73;1821884;78;21082;-86
2021/10/20 02:01:17;;;;;;;49.00;26.93;;;;;;;0.70;73.07;102027.27;1821533;78;20832;-85
2021/10/20 02:03:45;;;;;;;47.33;26.45;;;;;;;0.68;73.41;102028.12;1821845;78;20895;-86
2021/10/20 02:06:15;;;;;;;44.42;26.37;;;;;;;0.66;73.45;102020.37;1821503;78;20948;-86
2021/10/20 02:08:46;;;;;;;56.25;26.93;;;;;;;0.67;73.38;102020.82;1821460;78;21432;-85
2021/10/20 02:11:12;;;;;;;45.67;24.92;;;;;;;0.68;73.41;102022.53;1821683;78;21092;-85
2021/10/20 02:13:40;;;;;;;47.10;25.30;;;;;;;0.69;73.44;102030.72;1821322;78;21524;-84
2021/10/20 02:16:08;;;;;;;50.00;26.95;;;;;;;0.68;73.51;102032.00;1821531;78;20884;-87
2021/10/20 02:18:34;;;;;;;49.85;27.30;;;;;;;0.67;73.47;102031.55;1821772;78;20872;-84
2021/10/20 02:21:02;;;;;;;48.05;27.62;;;;;;;0.65;73.47;102031.56;1821763;78;21548;-85
2021/10/20 02:23:32;;;;;;;46.15;25.92;;;;;;;0.66;73.33;102039.73;1821530;78;21141;-84
2021/10/20 02:25:59;;;;;;;59.08;27.32;;;;;;;0.65;73.35;102039.75;1821679;78;20884;-84
2021/10/20 02:28:25;;;;;;;47.85;28.87;;;;;;;0.65;73.53;102044.47;1821665;78;20939;-85
2021/10/20 02:30:53;;;;;;;51.35;28.23;;;;;;;0.65;73.47;102042.33;1821408;78;20931;-86
2021/10/20 02:33:21;;;;;;;43.83;27.20;;;;;;;0.60;73.21;102048.73;1821811;78;20939;-83
2021/10/20 02:35:49;;;;;;;45.03;26.42;;;;;;;0.62;73.12;102049.61;1821424;78;21145;-82
2021/10/20 02:38:15;;;;;;;44.40;26.20;;;;;;;0.59;72.99;102056.05;1822528;78;20844;-82
2021/10/20 02:40:42;;;;;;;48.75;25.05;;;;;;;0.57;72.98;102051.31;1821457;78;20924;-86
2021/10/20 02:43:10;;;;;;;44.70;26.05;;;;;;;0.55;73.12;102056.89;1821345;78;20935;-88
2021/10/20 02:45:37;;;;;;;44.38;27.40;;;;;;;0.54;73.30;102047.44;1821520;78;20868;-88
2021/10/20 02:48:04;;;;;;;47.65;26.70;;;;;;;0.54;73.42;102047.44;1821629;78;21105;-90
2021/10/20 02:50:33;;;;;;;47.05;26.25;;;;;;;0.55;73.47;102058.19;1821727;78;20935;-88
2021/10/20 02:53:00;;;;;;;48.68;26.97;;;;;;;0.52;73.51;102050.00;1822015;78;20989;-91
2021/10/20 02:55:27;;;;;;;44.00;26.55;;;;;;;0.50;73.41;102053.44;1821730;78;20900;-91
2021/10/20 02:57:54;;;;;;;51.42;28.20;;;;;;;0.45;73.54;102052.56;1822164;78;20923;-91
2021/10/20 03:00:21;;;;;;;47.90;28.40;;;;;;;0.39;73.74;102045.64;1821604;78;21182;-92
2021/10/20 03:02:49;;;;;;;48.08;27.95;;;;;;;0.38;73.64;102048.66;1821700;78;20966;-92
2021/10/20 03:05:16;;;;;;;54.58;26.57;;;;;;;0.38;73.63;102043.92;1789709;78;20955;-90
2021/10/20 03:07:48;;;;;;;53.55;30.17;;;;;;;0.35;73.57;102042.60;1822021;78;20962;-91
2021/10/20 03:10:16;;;;;;;51.08;29.37;;;;;;;0.31;73.77;102036.98;1822056;78;20880;-90
2021/10/20 03:12:43;;;;;;;51.33;26.97;;;;;;;0.29;73.84;102038.29;1822855;78;21179;-94
2021/10/20 03:15:11;;;;;;;56.42;29.12;;;;;;;0.27;73.83;102045.55;1823397;78;20875;-94
2021/10/20 03:17:39;;;;;;;51.33;29.10;;;;;;;0.26;73.86;102047.28;1822379;78;20959;-93
2021/10/20 03:20:11;;;;;;;50.35;26.60;;;;;;;0.26;73.82;102045.99;1821944;78;20896;-88
2021/10/20 03:22:42;;;;;;;55.63;30.57;;;;;;;0.25;73.84;102055.03;1822133;78;20923;-88
2021/10/20 03:25:09;;;;;;;55.67;31.40;;;;;;;0.21;73.89;102047.69;1821589;78;21153;-86
2021/10/20 03:27:44;;;;;;;51.50;26.57;;;;;;;0.20;74.19;102052.00;1822329;78;20883;-85
2021/10/20 03:30:12;;;;;;;58.63;31.50;;;;;;;0.21;74.14;102052.84;1821820;78;20946;-87
2021/10/20 03:32:39;;;;;;;53.92;29.45;;;;;;;0.23;74.16;102055.02;1821582;78;20927;-88
2021/10/20 03:35:07;;;;;;;59.63;30.45;;;;;;;0.25;74.01;102059.76;1821441;78;20914;-85
2021/10/20 03:37:34;;;;;;;54.45;30.95;;;;;;;0.25;73.95;102063.63;1821652;78;21073;-85
2021/10/20 03:40:05;;;;;;;55.92;28.80;;;;;;;0.24;73.83;102064.90;1821065;78;20868;-84
2021/10/20 03:42:33;;;;;;;59.77;31.52;;;;;;;0.22;73.89;102068.75;1821590;78;20888;-85
2021/10/20 03:45:01;;;;;;;61.50;32.65;;;;;;;0.21;73.99;102070.91;1821466;78;20935;-83
2021/10/20 03:47:27;;;;;;;56.37;28.80;;;;;;;0.22;73.92;102070.47;1821701;78;20903;-84
2021/10/20 03:49:54;;;;;;;50.83;29.72;;;;;;;0.23;73.91;102074.80;1821364;78;21122;-86
2021/10/20 03:52:22;;;;;;;58.28;30.92;;;;;;;0.23;73.89;102070.49;1821531;78;20931;-87
2021/10/20 03:54:48;;;;;;;51.98;31.00;;;;;;;0.23;73.89;102070.92;1822404;78;20836;-88
2021/10/20 03:57:16;;;;;;;57.48;30.97;;;;;;;0.23;73.92;102080.81;1822756;78;20875;-87
2021/10/20 03:59:43;;;;;;;65.32;32.10;;;;;;;0.23;73.96;102090.27;1822877;78;21073;-85
2021/10/20 04:02:11;;;;;;;58.00;30.68;;;;;;;0.23;73.94;102098.87;1822149;78;21095;-86
2021/10/20 04:04:38;;;;;;;67.50;34.63;;;;;;;0.22;73.98;102098.84;1822529;78;20848;-88
2021/10/20 04:07:04;;;;;;;57.17;31.95;;;;;;;0.22;73.89;102105.30;1823535;78;20884;-90
2021/10/20 04:09:31;;;;;;;56.65;29.95;;;;;;;0.21;73.87;102108.31;1822520;78;21417;-92
2021/10/20 04:11:58;;;;;;;54.48;30.40;;;;;;;0.22;73.67;102114.33;1822939;78;20867;-91
2021/10/20 04:14:25;;;;;;;57.48;31.00;;;;;;;0.20;73.71;102113.02;1823228;78;21061;-83
2021/10/20 04:16:52;;;;;;;66.40;32.67;;;;;;;0.19;73.67;102108.29;1821839;78;20891;-86
2021/10/20 04:19:19;;;;;;;71.30;31.50;;;;;;;0.15;73.95;102109.55;1821816;78;20915;-88
2021/10/20 04:21:46;;;;;;;69.47;31.97;;;;;;;0.16;73.99;102109.57;1821545;78;20967;-89
2021/10/20 04:24:13;;;;;;;66.35;30.65;;;;;;;0.16;74.08;102111.30;1821936;78;20963;-88
2021/10/20 04:26:40;;;;;;;69.07;31.55;;;;;;;0.18;74.14;102111.73;1821418;78;21150;-86
2021/10/20 04:29:07;;;;;;;73.40;34.58;;;;;;;0.15;73.98;102117.29;1821533;78;20924;-88
2021/10/20 04:31:34;;;;;;;71.17;33.18;;;;;;;0.12;74.13;102119.86;1824181;78;20864;-88
2021/10/20 04:34:01;;;;;;;65.08;31.50;;;;;;;0.13;74.39;102121.57;1825109;78;21041;-89
2021/10/20 04:36:28;;;;;;;80.92;34.45;;;;;;;0.15;74.40;102117.29;1826195;78;21362;-87
2021/10/20 04:38:55;;;;;;;83.42;31.55;;;;;;;0.16;74.40;102125.48;1825568;78;21361;-85
2021/10/20 04:41:23;;;;;;;65.22;30.17;;;;;;;0.18;74.32;102131.09;1824798;78;20958;-86
2021/10/20 04:43:50;;;;;;;75.45;32.28;;;;;;;0.19;74.24;102137.09;1825082;78;20955;-87
2021/10/20 04:46:17;;;;;;;77.50;30.08;;;;;;;0.16;74.07;102132.78;1824953;78;21438;-87
2021/10/20 04:48:51;;;;;;;71.72;33.13;;;;;;;0.17;74.31;102141.38;1825026;78;20938;-91
2021/10/20 04:51:27;;;;;;;64.67;32.70;;;;;;;0.20;74.33;102140.98;1798632;78;21053;-89
2021/10/20 04:54:09;;;;;;;66.92;32.20;;;;;;;0.22;74.26;102145.28;1825097;78;20828;-87
2021/10/20 04:56:37;;;;;;;65.00;30.77;;;;;;;0.25;74.32;102153.06;1708969;83;20955;-89
2021/10/20 04:59:04;;;;;;;63.83;32.00;;;;;;;0.26;74.34;102167.68;1728943;83;21420;-89
2021/10/20 05:01:32;;;;;;;62.33;34.55;;;;;;;0.27;74.48;102160.36;1728797;83;21030;-89
2021/10/20 05:03:59;;;;;;;67.35;34.58;;;;;;;0.30;74.47;102170.72;1728915;83;21302;-86
2021/10/20 05:06:26;;;;;;;80.12;36.77;;;;;;;0.36;74.44;102172.06;1728691;83;20892;-89
2021/10/20 05:08:53;;;;;;;65.92;33.73;;;;;;;0.39;74.51;102178.09;1728754;83;21139;-87
2021/10/20 05:11:20;;;;;;;65.32;34.85;;;;;;;0.43;74.48;102172.98;1728564;83;21002;-85
2021/10/20 05:13:47;;;;;;;74.72;34.85;;;;;;;0.55;74.72;102172.61;1728426;83;20907;-88
2021/10/20 05:16:14;;;;;;;62.88;33.98;;;;;;;0.72;74.98;102177.89;1728793;83;21496;-90
2021/10/20 05:18:43;;;;;;;78.78;38.58;;;;;;;0.85;74.68;102186.58;1728745;83;21011;-89
2021/10/20 05:21:10;;;;;;;78.67;40.30;;;;;;;0.93;74.56;102191.33;1729070;82;21009;-91
2021/10/20 05:23:40;;;;;;;76.77;37.38;;;;;;;1.00;74.51;102188.35;1729027;83;20923;-95
2021/10/20 05:26:05;;;;;;;66.17;33.23;;;;;;;1.21;74.75;102192.34;1729174;83;20946;-90
2021/10/20 05:28:32;;;;;;;73.62;40.55;;;;;;;1.68;75.19;102190.77;1729225;83;21136;-88
2021/10/20 05:30:59;;;;;;;86.53;42.55;;;;;;;2.30;74.91;102199.45;1725231;83;21686;-89
2021/10/20 05:33:26;;;;;;;79.60;40.85;;;;;;;2.92;73.75;102204.11;1730186;81;20939;-88
2021/10/20 05:35:56;;;;;;;84.25;45.23;;;;;;;3.76;73.11;102197.70;1753083;82;20960;-86
2021/10/20 05:38:22;;;;;;;84.95;40.40;;;;;;;4.76;71.29;102191.23;1753247;81;21497;-86
2021/10/20 05:40:49;;;;;;;72.75;37.05;;;;;;;5.75;68.73;102190.00;1752952;81;21089;-86
2021/10/20 05:45:29;;;;;;;58.85;32.40;;;;;;;7.60;63.54;102195.33;1855141;77;22639;-84
2021/10/20 05:47:56;;;;;;;62.98;32.85;;;;;;;8.37;61.12;102202.21;1791419;78;20970;-87
2021/10/20 05:50:23;;;;;;;51.73;30.75;;;;;;;9.18;58.92;102205.75;1822862;78;21133;-86
2021/10/20 05:52:50;;;;;;;105.37;73.00;;;;;;;9.93;56.73;102200.84;1823317;78;20854;-86
2021/10/20 05:55:17;;;;;;;44.13;29.60;;;;;;;10.64;54.68;102207.70;1823863;78;20990;-88
2021/10/20 05:57:44;;;;;;;16.82;11.38;;;;;;;11.36;52.52;102211.67;1822582;78;20891;-83
2021/10/20 06:00:12;;;;;;;16.75;11.00;;;;;;;12.10;50.46;102201.39;1822885;78;20860;-89
2021/10/20 06:02:39;;;;;;;17.23;11.22;;;;;;;12.82;48.51;102214.95;1822846;78;21122;-87
2021/10/20 06:05:07;;;;;;;16.50;10.38;;;;;;;13.50;46.66;102213.27;1823188;78;20927;-88
2021/10/20 06:07:45;;;;;;;18.30;10.68;;;;;;;14.17;44.92;102222.83;1823217;78;20919;-87
2021/10/20 06:10:15;;;;;;;18.87;11.70;;;;;;;14.77;43.26;102225.11;1822664;78;21002;-86
2021/10/20 06:12:44;;;;;;;17.45;10.82;;;;;;;15.34;41.87;102212.38;1822638;78;20915;-86
2021/10/20 06:15:23;;;;;;;16.37;10.08;;;;;;;15.83;40.44;102208.36;1823215;78;21376;-91
2021/10/20 06:17:56;;;;;;;20.52;14.53;;;;;;;16.04;39.44;102212.03;1800763;77;21092;-90
2021/10/20 06:20:25;;;;;;;36.45;26.17;;;;;;;15.77;39.13;102211.82;1814300;79;20975;-88
2021/10/20 06:22:53;;;;;;;20.85;13.65;;;;;;;15.14;39.56;102201.56;1813406;79;20889;-91
2021/10/20 06:25:21;;;;;;;22.22;13.22;;;;;;;14.47;40.13;102210.73;1814339;79;21377;-94
2021/10/20 06:27:50;;;;;;;21.70;11.85;;;;;;;13.77;41.01;102204.52;1812678;79;21151;-93
2021/10/20 06:30:18;;;;;;;15.05;11.63;;;;;;;13.12;42.05;102205.79;1812342;79;20967;-91
2021/10/20 06:32:45;;;;;;;14.05;10.20;;;;;;;12.53;43.10;102216.69;1812756;79;20892;-91
2021/10/20 06:35:13;;;;;;;25.05;15.95;;;;;;;12.01;43.91;102215.77;1812669;79;21050;-91
2021/10/20 06:37:42;;;;;;;19.20;11.65;;;;;;;11.51;44.70;102218.09;1813069;79;20911;-89
2021/10/20 06:40:09;;;;;;;19.82;11.88;;;;;;;11.06;45.51;102220.22;1812745;79;21146;-89
2021/10/20 06:42:39;;;;;;;17.95;11.05;;;;;;;10.67;46.32;102229.05;1812566;79;21366;-83
2021/10/20 06:45:08;;;;;;;18.73;12.78;;;;;;;10.31;47.08;102232.84;1811161;79;20947;-89
2021/10/20 06:47:43;;;;;;;14.15;9.40;;;;;;;9.98;47.86;102234.76;1812789;79;20968;-88
2021/10/20 06:50:19;;;;;;;35.25;22.93;;;;;;;9.68;48.23;102242.67;1812676;79;20861;-88
2021/10/20 06:52:45;;;;;;;22.60;14.80;;;;;;;9.43;48.80;102246.48;1810087;79;20987;-93
2021/10/20 06:55:12;;;;;;;14.53;7.90;;;;;;;9.20;49.28;102236.64;1812119;79;20943;-86
2021/10/20 06:57:42;;;;;;;10.28;7.17;;;;;;;8.98;49.58;102228.98;1812051;79;20876;-92
2021/10/20 07:00:10;;;;;;;10.25;7.17;;;;;;;8.78;50.22;102222.56;1812952;79;20932;-93
2021/10/20 07:02:37;;;;;;;9.95;5.35;;;;;;;8.58;50.31;102221.77;1813244;79;20956;-91
2021/10/20 07:05:05;;;;;;;11.40;5.95;;;;;;;8.39;50.67;102225.25;1813118;79;21165;-91
2021/10/20 07:07:36;;;;;;;9.13;5.75;;;;;;;8.21;50.92;102216.12;1812773;79;21010;-92
2021/10/20 07:10:07;;;;;;;7.80;5.53;;;;;;;8.09;50.86;102209.86;1787406;79;21377;-89
2021/10/20 07:12:35;;;;;;;10.58;5.42;;;;;;;7.96;50.84;102209.74;1812145;79;21081;-87
2021/10/20 07:15:02;;;;;;;13.03;5.70;;;;;;;7.85;50.85;102210.02;1812502;79;20876;-86
2021/10/20 07:17:31;;;;;;;10.53;5.95;;;;;;;7.74;50.66;102210.26;1812231;79;20865;-84
2021/10/20 07:19:58;;;;;;;7.30;4.03;;;;;;;7.65;50.58;102215.69;1811382;79;20920;-83
2021/10/20 07:22:27;;;;;;;7.83;4.35;;;;;;;7.58;49.92;102212.36;1811513;79;20943;-90
2021/10/20 07:24:54;;;;;;;10.38;5.05;;;;;;;7.51;49.33;102213.36;1811917;79;20904;-85
2021/10/20 07:27:25;;;;;;;5.17;3.72;;;;;;;7.45;49.46;102217.42;1811317;78;21555;-88
2021/10/20 07:29:52;;;;;;;10.05;5.10;;;;;;;7.40;49.75;102218.83;1812275;79;21117;-86
2021/10/20 07:32:19;;;;;;;4.30;2.75;;;;;;;7.39;50.07;102224.07;1812177;79;20829;-84
2021/10/20 07:34:47;;;;;;;4.37;3.45;;;;;;;7.38;49.36;102224.95;1812649;79;20941;-85
2021/10/20 07:37:18;;;;;;;6.95;3.22;;;;;;;7.40;49.08;102219.25;1810214;79;20975;-87
2021/10/20 07:39:45;;;;;;;4.30;2.15;;;;;;;7.44;48.79;102222.22;1783162;79;20983;-86
2021/10/20 07:42:12;;;;;;;5.12;2.52;;;;;;;7.50;48.47;102219.48;1761357;80;21979;-84
2021/10/20 07:44:39;;;;;;;4.72;2.62;;;;;;;7.57;48.22;102220.20;1761281;81;20903;-85
2021/10/20 07:47:05;;;;;;;4.58;2.20;;;;;;;7.62;47.74;102215.28;1779751;80;20971;-85
2021/10/20 07:49:33;;;;;;;5.58;2.70;;;;;;;7.74;47.53;102215.48;1761251;81;21027;-86
2021/10/20 07:52:01;;;;;;;6.87;3.47;;;;;;;8.13;47.38;102218.05;1761211;81;21316;-87
2021/10/20 07:54:28;;;;;;;2.58;2.35;;;;;;;8.94;46.42;102219.07;1779583;80;21148;-84
2021/10/20 07:56:55;;;;;;;5.78;2.83;;;;;;;10.03;45.43;102218.45;1760887;81;20992;-84
2021/10/20 07:59:22;;;;;;;5.33;2.92;;;;;;;11.16;43.60;102207.60;1760981;81;21455;-87
2021/10/20 08:01:49;;;;;;;5.05;2.65;;;;;;;12.30;40.84;102208.46;1779624;80;21492;-83
2021/10/20 08:04:17;;;;;;;6.40;3.08;;;;;;;13.37;38.31;102206.86;1761050;80;20909;-83
2021/10/20 08:06:44;;;;;;;4.00;2.50;;;;;;;14.36;36.71;102198.99;1761366;81;21198;-85
2021/10/20 08:09:11;;;;;;;5.28;2.75;;;;;;;15.32;35.44;102193.11;1779649;80;20915;-82
2021/10/20 08:11:40;;;;;;;7.12;3.40;;;;;;;16.20;34.30;102194.78;1760990;81;20896;-83
2021/10/20 08:14:08;;;;;;;4.90;3.85;;;;;;;17.04;32.29;102186.23;1760926;81;20922;-82
2021/10/20 08:16:36;;;;;;;4.20;3.70;;;;;;;17.79;31.71;102187.59;1779446;80;20959;-84
2021/10/20 08:19:04;;;;;;;4.00;2.58;;;;;;;18.49;31.04;102185.64;1760093;81;21150;-83
2021/10/20 08:21:30;;;;;;;3.50;3.00;;;;;;;19.10;29.89;102179.20;1758550;81;20985;-83
2021/10/20 08:23:57;;;;;;;3.83;2.75;;;;;;;19.67;28.71;102182.14;1758645;81;20924;-82
2021/10/20 08:26:25;;;;;;;2.60;2.22;;;;;;;20.18;27.70;102179.69;1758408;81;20929;-85
2021/10/20 08:28:52;;;;;;;2.12;1.90;;;;;;;;;;1758695;80;21488;-84
2021/10/20 08:31:19;;;;;;;2.27;1.87;;;;;;;21.20;26.77;102171.33;1758507;81;21793;-86
2021/10/20 08:33:46;;;;;;;1.80;1.57;;;;;;;21.61;26.04;102163.62;1758477;81;20928;-82
2021/10/20 08:36:14;;;;;;;3.02;2.05;;;;;;;21.88;25.64;102161.84;1758841;81;21461;-87
2021/10/20 08:38:41;;;;;;;3.30;2.20;;;;;;;22.13;25.16;102159.28;1758987;80;21375;-90
2021/10/20 08:41:09;;;;;;;3.87;2.40;;;;;;;22.26;25.13;102151.11;1759189;81;20945;-90
2021/10/20 08:43:36;;;;;;;5.58;2.52;;;;;;;22.42;24.73;102154.14;1758909;80;21204;-87
2021/10/20 08:46:03;;;;;;;4.53;2.30;;;;;;;22.79;24.29;102142.94;1758674;81;21510;-86
2021/10/20 08:48:30;;;;;;;2.17;1.72;;;;;;;23.11;23.95;102143.27;1758434;81;20897;-85
2021/10/20 08:51:00;;;;;;;5.10;3.45;;;;;;;23.28;23.65;102143.95;1758441;80;20949;-87
2021/10/20 08:53:27;;;;;;;3.62;2.42;;;;;;;23.52;23.15;102146.71;1758595;81;20972;-86
2021/10/20 08:55:54;;;;;;;8.10;2.62;;;;;;;23.78;23.15;102151.06;1758629;80;21126;-87
2021/10/20 08:58:22;;;;;;;5.17;2.35;;;;;;;24.00;22.13;102148.08;1758830;80;21371;-88
2021/10/20 09:00:52;;;;;;;2.83;2.60;;;;;;;24.09;21.92;102148.22;1758684;80;20908;-87
2021/10/20 09:03:20;;;;;;;4.25;2.08;;;;;;;24.14;21.68;102135.22;1758939;80;20988;-85
2021/10/20 09:05:47;;;;;;;2.83;2.22;;;;;;;24.25;22.11;102128.35;1758752;80;21082;-86
2021/10/20 09:08:16;;;;;;;2.33;2.12;;;;;;;24.31;21.41;102125.60;1758494;80;20953;-85
2021/10/20 09:10:45;;;;;;;3.55;2.17;;;;;;;24.23;21.69;102118.77;1758764;80;21476;-86
2021/10/20 09:13:12;;;;;;;3.52;2.33;;;;;;;24.11;21.85;102114.92;1759350;80;20973;-87
2021/10/20 09:15:41;;;;;;;3.40;1.82;;;;;;;23.99;22.00;102118.27;1710989;81;20901;-88
2021/10/20 09:18:12;;;;;;;9.75;2.87;;;;;;;23.82;21.63;102122.16;1759640;80;21359;-88
2021/10/20 09:20:44;;;;;;;3.93;2.43;;;;;;;23.65;22.18;102122.34;1749137;80;20886;-85
2021/10/20 09:23:19;;;;;;;3.22;2.20;;;;;;;23.30;22.08;102120.56;1746512;82;20987;-88
2021/10/20 09:25:58;;;;;;;3.05;2.15;;;;;;;23.02;22.61;102111.98;1746397;82;20925;-87
2021/10/20 09:28:37;;;;;;;1.90;1.32;;;;;;;22.75;22.67;102118.77;1746795;82;21013;-87
2021/10/20 09:31:07;;;;;;;2.17;1.92;;;;;;;22.76;22.86;102107.91;1747391;82;21004;-85
2021/10/20 09:33:39;;;;;;;5.17;2.55;;;;;;;22.93;22.70;102100.23;1746375;82;21141;-86
2021/10/20 09:36:17;;;;;;;4.10;2.47;;;;;;;23.14;22.40;102101.50;1746661;82;21427;-89
2021/10/20 09:38:47;;;;;;;4.10;2.27;;;;;;;23.14;22.40;102101.50;1746441;82;21048;-90
2021/10/20 09:41:14;;;;;;;2.10;1.87;;;;;;;23.41;22.42;102104.87;1746532;82;20988;-87
2021/10/20 09:43:52;;;;;;;2.45;1.98;;;;;;;23.71;21.91;102102.53;1746491;82;21367;-87
2021/10/20 09:46:15;;;;;;;3.75;1.75;;;;;;;23.92;21.52;102097.05;1746761;82;21132;-88
2021/10/20 09:48:42;;;;;;;2.45;1.65;;;;;;;24.12;21.41;102095.66;1746619;82;21375;-89
2021/10/20 09:51:11;;;;;;;3.47;2.00;;;;;;;24.26;21.14;102099.23;1746398;82;20878;-87
2021/10/20 09:53:42;;;;;;;2.92;2.05;;;;;;;24.39;21.50;102101.59;1746264;82;20906;-88
2021/10/20 09:56:32;;;;;;;5.62;2.98;;;;;;;24.58;21.29;102105.55;1746795;82;20881;-90
2021/10/20 09:58:59;;;;;;;4.95;2.47;;;;;;;24.76;20.61;102094.03;1747264;82;21158;-87
2021/10/20 10:01:29;;;;;;;9.68;4.00;;;;;;;24.91;21.26;102089.02;1746807;82;20949;-87
2021/10/20 10:04:04;;;;;;;4.15;3.27;;;;;;;25.13;20.28;102092.62;1747377;82;20902;-89
2021/10/20 10:06:29;;;;;;;;;;;;;;;25.50;20.04;102082.27;1749194;82;20917;-88
2021/10/20 10:08:56;;;;;;;4.78;3.90;;;;;;;25.76;19.75;102082.30;1747334;82;20123;-87
2021/10/20 10:11:25;;;;;;;7.22;4.20;;;;;;;25.88;19.47;102080.25;1748175;82;20957;-90
2021/10/20 10:13:53;;;;;;;4.17;2.77;;;;;;;26.09;19.41;102082.56;1700195;82;20898;-90
2021/10/20 10:16:24;;;;;;;6.03;4.30;;;;;;;26.26;19.09;102077.63;1747151;82;20866;-88
2021/10/20 10:18:58;;;;;;;3.42;3.12;;;;;;;26.46;18.90;102076.05;1747481;82;20913;-86
2021/10/20 10:21:35;;;;;;;3.20;2.40;;;;;;;26.55;18.25;102079.62;1759413;81;20996;-86
2021/10/20 10:24:07;;;;;;;3.15;2.25;;;;;;;26.61;18.07;102070.91;1759821;81;21341;-87
2021/10/20 10:26:39;;;;;;;3.27;2.47;;;;;;;26.67;17.90;102071.11;1759650;80;21058;-88
2021/10/20 10:29:12;;;;;;;5.55;2.55;;;;;;;26.51;17.81;102067.49;1756661;81;20972;-86
2021/10/20 10:31:44;;;;;;;3.85;2.15;;;;;;;26.27;18.20;102066.36;1760077;80;20964;-85
2021/10/20 10:34:26;;;;;;;4.28;2.35;;;;;;;26.20;17.70;102055.40;1759479;81;20994;-90
2021/10/20 10:36:55;;;;;;;4.22;2.75;;;;;;;26.20;17.65;102051.37;1716403;81;21123;-88
2021/10/20 10:39:22;;;;;;;3.60;2.83;;;;;;;26.18;17.92;102043.13;1759735;81;20885;-86
2021/10/20 10:41:49;;;;;;;5.87;2.70;;;;;;;26.26;17.71;102040.48;1759534;81;20893;-86
2021/10/20 10:44:22;;;;;;;2.30;2.10;;;;;;;26.29;17.40;102034.77;1759637;81;20992;-90
2021/10/20 10:47:07;;;;;;;5.92;2.80;;;;;;;26.10;17.44;102027.80;1759010;81;20987;-88
2021/10/20 10:49:54;;;;;;;4.28;2.70;;;;;;;25.66;17.82;102025.13;1758592;81;21138;-85
2021/10/20 10:52:33;;;;;;;2.83;2.52;;;;;;;25.02;18.14;102027.06;1759430;81;20897;-88
2021/10/20 10:55:17;;;;;;;5.95;2.00;;;;;;;24.39;18.53;102019.80;1668567;85;20967;-89
2021/10/20 10:57:58;;;;;;;;;;;;;;;23.75;19.04;102020.09;1670703;86;21023;-87
2021/10/20 11:00:34;;;;;;;4.72;2.85;;;;;;;23.00;19.80;102025.15;1668000;85;20394;-84
2021/10/20 11:03:14;;;;;;;2.83;2.55;;;;;;;22.32;20.32;102022.26;1667993;85;21110;-88
2021/10/20 11:05:55;;;;;;;4.70;2.60;;;;;;;21.74;20.82;102018.77;1668224;86;20959;-85
2021/10/20 11:08:23;;;;;;;4.03;3.33;;;;;;;21.16;21.27;102015.63;1668040;85;21027;-87
2021/10/20 11:10:51;;;;;;;5.78;4.08;;;;;;;20.67;21.95;102014.66;1668514;86;20968;-86
2021/10/20 11:13:18;;;;;;;8.18;3.05;;;;;;;20.25;22.42;102010.45;1667956;85;20967;-86
2021/10/20 11:15:45;;;;;;;7.67;3.58;;;;;;;19.85;22.76;102007.36;1668344;85;21778;-85
2021/10/20 11:18:14;;;;;;;7.00;4.00;;;;;;;19.46;23.34;102005.43;1667574;86;21002;-83
2021/10/20 11:20:43;;;;;;;5.05;3.10;;;;;;;19.04;23.49;102004.52;1658999;86;20960;-86
2021/10/20 11:23:14;;;;;;;4.20;2.60;;;;;;;18.69;23.57;102005.73;1653495;86;20912;-84
2021/10/20 11:25:44;;;;;;;4.75;2.50;;;;;;;18.39;23.60;102002.16;1653251;86;20953;-86
2021/10/20 11:28:11;;;;;;;6.28;2.77;;;;;;;18.10;23.73;101994.92;1653267;86;21501;-86
2021/10/20 11:30:40;;;;;;;5.90;5.17;;;;;;;17.83;23.79;101989.24;1652943;86;20949;-84